Cedar Hill, Tennessee
Current Conditions -  °F | °C
As of 7:35 PM on Thursday 18 Dec 2014 (Local Time) from KM91 Reporting Station
Overcast Overcast  
Wind Chill: 34°   Ceiling: 4500
Heat Index: 34°   Visibility: 10mi
Dew Point: 30°   Wind: 3mph
Humidity: 87%   Direction: 30°NNE
Pressure: 30.23"   Gusts: NA
Location:  36.55°N, 87°W
Report Text: KM91 190135Z AUTO 03003KT 10SM OVC045 01/M01 A3023 RMK
Loading
Personal Weather Stations






























Interactive Weather Map New forecast layout! Learn more

10-Day Weather Forecast

Advertisements
Track Severe Weather on mobile